createdAt,value
2018-01-11T00:01:16.531Z,85.80
2018-01-11T00:03:44.099Z,85.69
2018-01-11T00:06:11.734Z,85.56
2018-01-11T00:08:39.360Z,85.41
2018-01-11T00:11:06.975Z,85.44
2018-01-11T00:13:34.646Z,85.11
2018-01-11T00:16:02.206Z,85.13
2018-01-11T00:18:29.762Z,85.01
2018-01-11T00:20:57.326Z,85.19
2018-01-11T00:23:24.887Z,85.18
2018-01-11T00:25:52.497Z,85.25
2018-01-11T00:28:20.122Z,85.74
2018-01-11T00:30:47.678Z,86.17
2018-01-11T00:33:15.245Z,86.11
2018-01-11T00:35:42.895Z,86.15
2018-01-11T00:38:10.546Z,86.56
2018-01-11T00:40:38.134Z,86.52
2018-01-11T00:43:05.708Z,87.14
2018-01-11T00:45:33.278Z,87.13
2018-01-11T00:48:00.941Z,87.37
2018-01-11T00:50:28.565Z,87.27
2018-01-11T00:52:56.179Z,87.14
2018-01-11T00:55:23.731Z,87.02
2018-01-11T00:57:51.370Z,86.90
2018-01-11T01:00:18.995Z,87.56
2018-01-11T01:02:46.652Z,87.52
2018-01-11T01:05:14.218Z,87.62
2018-01-11T01:07:41.839Z,87.51
2018-01-11T01:10:09.406Z,87.58
2018-01-11T01:12:36.975Z,87.78
2018-01-11T01:15:04.603Z,87.62
2018-01-11T01:17:32.162Z,87.86
2018-01-11T01:19:59.723Z,88.16
2018-01-11T01:22:27.356Z,88.34
2018-01-11T01:24:54.929Z,88.11
2018-01-11T01:27:22.625Z,88.19
2018-01-11T01:29:50.191Z,88.05
2018-01-11T01:32:17.760Z,87.96
2018-01-11T01:34:45.395Z,88.37
2018-01-11T01:37:12.960Z,88.40
2018-01-11T01:39:40.657Z,88.35
2018-01-11T01:42:08.276Z,88.51
2018-01-11T01:44:35.835Z,88.62
2018-01-11T01:47:03.443Z,88.78
2018-01-11T01:49:31.006Z,89.06
2018-01-11T01:51:58.686Z,89.38
2018-01-11T01:54:26.256Z,89.46
2018-01-11T01:56:53.822Z,89.95
2018-01-11T01:59:21.432Z,90.25
2018-01-11T02:01:48.992Z,90.10
2018-01-11T02:04:16.675Z,89.99
2018-01-11T02:06:44.248Z,90.03
2018-01-11T02:09:11.811Z,89.83
2018-01-11T02:11:39.443Z,89.79
2018-01-11T02:14:06.988Z,89.77
2018-01-11T02:16:34.612Z,89.71
2018-01-11T02:19:02.179Z,89.72
2018-01-11T02:21:29.753Z,89.78
2018-01-11T02:23:57.342Z,89.69
2018-01-11T02:26:24.905Z,89.77
2018-01-11T02:28:52.534Z,90.04
2018-01-11T02:31:20.099Z,90.24
2018-01-11T02:33:47.699Z,90.28
2018-01-11T02:36:15.271Z,90.63
2018-01-11T02:38:42.841Z,90.53
2018-01-11T02:41:10.451Z,90.48
2018-01-11T02:43:38.079Z,90.33
2018-01-11T02:46:05.646Z,90.53
2018-01-11T02:48:33.258Z,90.80
2018-01-11T02:51:00.813Z,90.79
2018-01-11T02:53:28.491Z,90.91
2018-01-11T02:55:56.118Z,90.86
2018-01-11T02:58:23.682Z,90.69
2018-01-11T03:00:51.294Z,90.73
2018-01-11T03:03:18.915Z,90.87
2018-01-11T03:05:46.602Z,90.80
2018-01-11T03:08:14.231Z,90.79
2018-01-11T03:10:41.806Z,90.82
2018-01-11T03:13:09.378Z,90.69
2018-01-11T03:15:36.936Z,90.68
2018-01-11T03:18:04.676Z,90.45
2018-01-11T03:20:32.247Z,90.51
2018-01-11T03:22:59.861Z,90.50
2018-01-11T03:25:27.430Z,90.85
2018-01-11T03:27:55.091Z,90.90
2018-01-11T03:30:22.703Z,90.78
2018-01-11T03:32:50.283Z,90.80
2018-01-11T03:35:17.905Z,90.76
2018-01-11T03:37:45.551Z,90.96
2018-01-11T03:40:13.127Z,90.72
2018-01-11T03:42:40.809Z,90.48
2018-01-11T03:45:08.375Z,90.37
2018-01-11T03:47:35.938Z,90.54
2018-01-11T03:50:03.507Z,90.63
2018-01-11T03:52:31.066Z,90.52
2018-01-11T03:54:58.750Z,90.41
2018-01-11T03:57:26.412Z,90.18
2018-01-11T03:59:53.976Z,90.19
2018-01-11T04:02:21.546Z,89.96
2018-01-11T04:04:49.120Z,89.90
2018-01-11T04:07:16.800Z,89.83
2018-01-11T04:09:44.362Z,89.63
2018-01-11T04:12:11.919Z,89.61
2018-01-11T04:14:39.487Z,89.59
2018-01-11T04:17:07.107Z,89.31
2018-01-11T04:19:34.736Z,89.40
2018-01-11T04:22:02.284Z,89.28
2018-01-11T04:24:29.898Z,89.29
2018-01-11T04:26:57.541Z,89.26
2018-01-11T04:29:25.195Z,89.26
2018-01-11T04:31:52.802Z,89.01
2018-01-11T04:34:20.365Z,89.00
2018-01-11T04:36:47.989Z,89.00
2018-01-11T04:39:15.562Z,88.92
2018-01-11T04:41:43.129Z,88.76
2018-01-11T04:44:10.742Z,88.63
2018-01-11T04:46:38.307Z,88.53
2018-01-11T04:49:05.957Z,88.60
2018-01-11T04:51:33.523Z,88.78
2018-01-11T04:54:01.081Z,88.70
2018-01-11T04:56:28.698Z,88.73
2018-01-11T04:58:56.281Z,88.87
2018-01-11T05:01:23.902Z,88.95
2018-01-11T05:03:51.471Z,88.62
2018-01-11T05:06:19.113Z,88.71
2018-01-11T05:08:46.794Z,88.86
2018-01-11T05:11:14.381Z,88.84
2018-01-11T05:13:41.999Z,88.59
2018-01-11T05:16:09.633Z,88.60
2018-01-11T05:18:37.190Z,88.60
2018-01-11T05:21:04.803Z,88.64
2018-01-11T05:23:32.370Z,88.70
2018-01-11T05:26:00.014Z,89.04
2018-01-11T05:28:27.595Z,89.14
2018-01-11T05:30:55.183Z,89.10
2018-01-11T05:33:22.799Z,89.02
2018-01-11T05:35:50.426Z,89.05
2018-01-11T05:38:18.049Z,88.92
2018-01-11T05:40:45.625Z,88.89
2018-01-11T05:43:13.254Z,88.82
2018-01-11T05:45:40.926Z,88.88
2018-01-11T05:48:08.544Z,88.93
2018-01-11T05:50:36.099Z,88.86
2018-01-11T05:53:03.671Z,88.79
2018-01-11T05:55:31.247Z,88.79
2018-01-11T05:57:58.863Z,88.86
2018-01-11T06:00:26.424Z,89.13
2018-01-11T06:02:54.047Z,89.47
2018-01-11T06:05:21.618Z,89.37
2018-01-11T06:07:49.245Z,89.61
2018-01-11T06:10:16.863Z,89.70
2018-01-11T06:12:44.430Z,89.89
2018-01-11T06:15:11.994Z,89.79
2018-01-11T06:17:39.582Z,89.89
2018-01-11T06:20:07.145Z,89.72
2018-01-11T06:22:34.822Z,89.83
2018-01-11T06:25:02.390Z,89.92
2018-01-11T06:27:29.950Z,89.87
2018-01-11T06:29:57.538Z,90.05
2018-01-11T06:32:25.098Z,90.13
2018-01-11T06:34:52.780Z,90.35
2018-01-11T06:37:20.487Z,90.40
2018-01-11T06:39:48.062Z,90.29
2018-01-11T06:42:15.703Z,90.33
2018-01-11T06:44:43.261Z,90.11
2018-01-11T06:47:10.889Z,89.92
2018-01-11T06:49:38.466Z,89.64
2018-01-11T06:52:06.059Z,89.60
2018-01-11T06:54:33.630Z,89.40
2018-01-11T06:57:01.197Z,89.36
2018-01-11T06:59:28.815Z,89.25
2018-01-11T07:01:56.390Z,89.59
2018-01-11T07:04:23.955Z,89.79
2018-01-11T07:06:51.596Z,89.40
2018-01-11T07:09:19.227Z,89.21
2018-01-11T07:11:46.838Z,88.73
2018-01-11T07:14:14.446Z,88.88
2018-01-11T07:16:41.997Z,89.34
2018-01-11T07:19:09.552Z,89.61
2018-01-11T07:21:37.110Z,89.43
2018-01-11T07:24:04.796Z,89.53
2018-01-11T07:26:32.358Z,89.79
2018-01-11T07:28:59.926Z,89.21
2018-01-11T07:31:27.495Z,89.25
2018-01-11T07:33:55.062Z,89.00
2018-01-11T07:36:22.747Z,88.71
2018-01-11T07:38:50.289Z,88.46
2018-01-11T07:41:17.907Z,88.40
2018-01-11T07:43:45.472Z,88.11
2018-01-11T07:46:13.030Z,88.10
2018-01-11T07:48:40.648Z,88.01
2018-01-11T07:51:08.206Z,87.60
2018-01-11T07:53:35.802Z,87.43
2018-01-11T07:56:03.370Z,87.06
2018-01-11T07:58:30.943Z,87.42
2018-01-11T08:00:58.579Z,87.25
2018-01-11T08:03:26.155Z,87.25
2018-01-11T08:05:53.734Z,86.84
2018-01-11T08:08:21.302Z,86.39
2018-01-11T08:13:30.826Z,86.40
2018-01-11T08:15:58.400Z,86.23
2018-01-11T08:18:25.966Z,85.92
2018-01-11T08:20:53.537Z,86.05
2018-01-11T08:23:21.118Z,85.70
2018-01-11T08:25:48.763Z,85.70
2018-01-11T08:28:16.334Z,85.78
2018-01-11T08:30:43.903Z,85.26
2018-01-11T08:33:11.475Z,85.42
2018-01-11T08:35:39.036Z,85.67
2018-01-11T08:38:06.655Z,85.04
2018-01-11T08:40:34.228Z,85.16
2018-01-11T08:43:01.794Z,85.21
2018-01-11T08:45:29.362Z,85.21
2018-01-11T08:47:56.922Z,85.45
2018-01-11T08:50:25.432Z,85.27
2018-01-11T08:52:52.992Z,85.45
2018-01-11T08:55:20.538Z,84.97
2018-01-11T08:57:48.111Z,85.21
2018-01-11T09:00:15.685Z,84.86
2018-01-11T09:02:43.322Z,84.23
2018-01-11T09:05:10.880Z,83.14
2018-01-11T09:07:38.419Z,82.96
2018-01-11T09:10:05.996Z,83.72
2018-01-11T09:12:33.569Z,84.14
2018-01-11T09:15:01.178Z,84.08
2018-01-11T09:17:28.742Z,83.75
2018-01-11T09:19:56.312Z,83.43
2018-01-11T09:22:23.882Z,83.50
2018-01-11T09:24:51.442Z,83.49
2018-01-11T09:27:19.037Z,84.22
2018-01-11T09:29:46.609Z,84.48
2018-01-11T09:32:14.151Z,84.90
2018-01-11T09:34:41.718Z,85.19
2018-01-11T09:37:09.279Z,85.39
2018-01-11T09:39:36.890Z,85.71
2018-01-11T09:42:04.431Z,85.65
2018-01-11T09:44:31.990Z,85.81
2018-01-11T09:46:59.598Z,85.72
2018-01-11T09:49:27.166Z,85.46
2018-01-11T09:51:54.778Z,85.56
2018-01-11T09:54:22.356Z,86.07
2018-01-11T09:56:49.917Z,85.58
2018-01-11T09:59:17.467Z,84.69
2018-01-11T10:01:45.026Z,84.81
2018-01-11T10:04:12.681Z,85.02
2018-01-11T10:06:40.260Z,84.33
2018-01-11T10:09:07.832Z,84.44
2018-01-11T10:11:35.398Z,84.02
2018-01-11T10:14:02.947Z,84.01
2018-01-11T10:16:30.539Z,84.18
2018-01-11T10:18:58.103Z,84.58
2018-01-11T10:21:25.703Z,84.06
2018-01-11T10:23:53.283Z,83.79
2018-01-11T10:26:20.845Z,82.39
2018-01-11T10:28:48.462Z,82.35
2018-01-11T10:31:16.030Z,82.88
2018-01-11T10:33:43.591Z,82.76
2018-01-11T10:36:11.174Z,83.31
2018-01-11T10:38:38.719Z,81.71
2018-01-11T10:41:06.350Z,81.12
2018-01-11T10:43:33.910Z,80.00
2018-01-11T10:46:01.481Z,79.95
2018-01-11T10:48:29.072Z,79.62
2018-01-11T10:50:56.648Z,79.81
2018-01-11T10:53:24.280Z,80.30
2018-01-11T10:55:51.863Z,79.52
2018-01-11T10:58:19.425Z,79.71
2018-01-11T11:00:52.520Z,80.64
2018-01-11T11:03:20.079Z,81.01
2018-01-11T11:05:47.702Z,81.30
2018-01-11T11:08:15.262Z,81.31
2018-01-11T11:10:42.810Z,81.31
2018-01-11T11:13:10.374Z,81.74
2018-01-11T11:15:37.930Z,81.34
2018-01-11T11:18:05.561Z,80.74
2018-01-11T11:20:33.118Z,81.04
2018-01-11T11:23:00.667Z,81.27
2018-01-11T11:25:28.250Z,80.79
2018-01-11T11:27:55.829Z,80.57
2018-01-11T11:30:23.458Z,81.32
2018-01-11T11:32:51.047Z,80.86
2018-01-11T11:38:09.909Z,81.93
2018-01-11T11:40:54.699Z,82.58
2018-01-11T11:43:26.614Z,82.39
2018-01-11T11:46:08.540Z,82.58
2018-01-11T12:00:22.540Z,79.28
2018-01-11T12:03:02.548Z,80.29
2018-01-11T12:05:36.414Z,80.31
2018-01-11T12:11:25.367Z,80.00
2018-01-11T12:13:52.933Z,80.23
2018-01-11T12:16:20.499Z,80.56
2018-01-11T12:18:48.066Z,79.96
2018-01-11T12:21:15.615Z,79.46
2018-01-11T12:26:16.090Z,79.31
2018-01-11T12:31:16.254Z,78.49
2018-01-11T12:33:43.814Z,78.46
2018-01-11T12:36:11.350Z,78.16
2018-01-11T12:38:38.954Z,78.66
2018-01-11T12:41:07.357Z,78.59
2018-01-11T12:43:34.895Z,79.67
2018-01-11T12:48:37.483Z,78.89
2018-01-11T12:51:05.063Z,79.16
2018-01-11T12:53:32.606Z,78.77
2018-01-11T12:56:00.168Z,78.89
2018-01-11T12:58:27.751Z,79.97
2018-01-11T13:00:55.356Z,79.93
2018-01-11T13:03:22.955Z,80.07
2018-01-11T13:05:50.498Z,80.29
2018-01-11T13:10:51.016Z,80.45
2018-01-11T13:13:18.551Z,79.98
2018-01-11T13:15:46.215Z,79.60
2018-01-11T13:18:13.750Z,79.55
2018-01-11T13:20:41.355Z,79.81
2018-01-11T13:23:08.995Z,79.33
2018-01-11T13:25:36.609Z,79.94
2018-01-11T13:28:04.279Z,79.39
2018-01-11T13:30:31.842Z,79.75
2018-01-11T13:32:59.467Z,80.09
2018-01-11T13:35:27.038Z,80.52
2018-01-11T13:37:54.607Z,80.47
2018-01-11T13:40:22.268Z,80.96
2018-01-11T13:42:49.842Z,80.85
2018-01-11T13:45:17.417Z,80.74
2018-01-11T13:47:44.999Z,81.10
2018-01-11T13:50:12.558Z,81.59
2018-01-11T13:52:40.161Z,81.75
2018-01-11T13:55:07.700Z,82.42
2018-01-11T13:57:35.262Z,82.82
2018-01-11T14:00:02.846Z,82.85
2018-01-11T14:02:30.429Z,83.08
2018-01-11T14:04:58.026Z,82.81
2018-01-11T14:07:25.652Z,82.77
2018-01-11T14:09:53.303Z,82.67
2018-01-11T14:12:20.894Z,82.44
2018-01-11T14:14:48.453Z,82.59
2018-01-11T14:17:16.062Z,82.27
2018-01-11T14:19:43.682Z,82.42
2018-01-11T14:22:11.294Z,82.20
2018-01-11T14:24:38.863Z,82.45
2018-01-11T14:27:06.442Z,82.41
2018-01-11T14:29:34.083Z,82.53
2018-01-11T14:32:01.703Z,82.29
2018-01-11T14:34:29.250Z,82.61
2018-01-11T14:36:56.822Z,82.20
2018-01-11T14:39:24.447Z,82.89
2018-01-11T14:41:52.093Z,82.74
2018-01-11T14:44:19.657Z,83.14
2018-01-11T14:46:47.232Z,82.91
2018-01-11T14:49:14.899Z,83.02
2018-01-11T14:51:42.502Z,83.08
2018-01-11T14:54:10.163Z,82.84
2018-01-11T14:56:37.778Z,83.31
2018-01-11T14:59:05.407Z,83.06
2018-01-11T15:01:33.005Z,83.33
2018-01-11T15:04:00.615Z,83.11
2018-01-11T15:06:28.264Z,83.33
2018-01-11T15:08:55.803Z,83.10
2018-01-11T15:11:23.348Z,83.04
2018-01-11T15:13:50.988Z,83.02
2018-01-11T15:16:18.568Z,83.29
2018-01-11T15:18:46.234Z,83.07
2018-01-11T15:21:13.809Z,83.55
2018-01-11T15:23:41.440Z,83.27
2018-01-11T15:26:09.011Z,83.23
2018-01-11T15:28:36.574Z,83.10
2018-01-11T15:31:04.180Z,83.09
2018-01-11T15:33:31.747Z,83.12
2018-01-11T15:35:59.371Z,83.16
2018-01-11T15:38:26.978Z,83.54
2018-01-11T15:40:54.608Z,83.51
2018-01-11T15:43:22.232Z,83.40
2018-01-11T15:45:49.860Z,83.61
2018-01-11T15:48:17.489Z,83.71
2018-01-11T15:50:45.066Z,84.00
2018-01-11T15:53:12.658Z,84.11
2018-01-11T15:55:40.282Z,84.06
2018-01-11T15:58:07.941Z,83.80
2018-01-11T16:00:35.526Z,83.81
2018-01-11T16:03:03.070Z,83.56
2018-01-11T16:05:30.639Z,83.33
2018-01-11T16:07:58.276Z,83.35
2018-01-11T16:10:25.862Z,83.20
2018-01-11T16:12:53.505Z,83.13
2018-01-11T16:15:21.095Z,83.23
2018-01-11T16:17:48.662Z,83.44
2018-01-11T16:20:16.283Z,83.19
2018-01-11T16:22:43.907Z,83.23
2018-01-11T16:25:11.545Z,83.30
2018-01-11T16:27:39.099Z,83.22
2018-01-11T16:30:06.672Z,83.30
2018-01-11T16:32:34.357Z,83.64
2018-01-11T16:35:01.978Z,83.72
2018-01-11T16:37:29.538Z,83.86
2018-01-11T16:39:57.170Z,84.24
2018-01-11T16:42:24.758Z,84.61
2018-01-11T16:44:52.404Z,84.40
2018-01-11T16:47:20.033Z,84.68
2018-01-11T16:49:47.608Z,84.75
2018-01-11T16:52:15.192Z,84.77
2018-01-11T16:54:42.815Z,84.53
2018-01-11T16:57:10.479Z,84.48
2018-01-11T16:59:38.023Z,84.61
2018-01-11T17:02:05.720Z,84.33
2018-01-11T17:04:33.279Z,84.58
2018-01-11T17:07:00.898Z,84.60
2018-01-11T17:09:28.548Z,84.54
2018-01-11T17:11:56.181Z,84.41
2018-01-11T17:14:23.834Z,84.35
2018-01-11T17:16:51.438Z,84.22
2018-01-11T17:19:19.038Z,84.38
2018-01-11T17:21:46.631Z,84.61
2018-01-11T17:24:14.168Z,84.30
2018-01-11T17:26:41.698Z,84.51
2018-01-11T17:29:09.266Z,84.28
2018-01-11T17:31:36.794Z,84.44
2018-01-11T17:34:04.391Z,84.35
2018-01-11T17:36:31.920Z,84.34
2018-01-11T17:38:59.450Z,84.26
2018-01-11T17:41:26.991Z,84.40
2018-01-11T17:43:54.583Z,84.13
2018-01-11T17:46:22.252Z,83.93
2018-01-11T17:48:49.843Z,83.93
2018-01-11T17:51:17.434Z,83.71
2018-01-11T17:53:44.987Z,83.71
2018-01-11T17:56:12.527Z,83.67
2018-01-11T17:58:40.102Z,83.74
2018-01-11T18:01:07.694Z,83.36
2018-01-11T18:03:35.297Z,83.17
2018-01-11T18:06:02.838Z,83.09
2018-01-11T18:08:30.371Z,83.17
2018-01-11T18:10:57.952Z,83.19
2018-01-11T18:13:25.487Z,82.78
2018-01-11T18:15:53.021Z,83.04
2018-01-11T18:18:20.572Z,83.02
2018-01-11T18:20:48.110Z,82.74
2018-01-11T18:23:15.696Z,83.15
2018-01-11T18:25:43.294Z,82.96
2018-01-11T18:28:10.826Z,82.79
2018-01-11T18:30:38.366Z,83.12
2018-01-11T18:33:05.951Z,83.16
2018-01-11T18:35:33.588Z,82.84
2018-01-11T18:38:01.179Z,82.79
2018-01-11T18:40:28.712Z,82.86
2018-01-11T18:42:56.314Z,82.83
2018-01-11T18:45:23.841Z,82.70
2018-01-11T18:47:51.442Z,82.61
2018-01-11T18:50:18.999Z,82.58
2018-01-11T18:52:46.538Z,82.75
2018-01-11T18:55:14.082Z,82.50
2018-01-11T18:57:41.680Z,82.53
2018-01-11T19:00:09.299Z,82.53
2018-01-11T19:02:36.831Z,82.48
2018-01-11T19:05:04.427Z,82.27
2018-01-11T19:07:32.027Z,82.31
2018-01-11T19:09:59.562Z,82.08
2018-01-11T19:12:27.154Z,82.19
2018-01-11T19:14:54.690Z,82.23
2018-01-11T19:17:22.292Z,82.30
2018-01-11T19:19:49.831Z,82.33
2018-01-11T19:22:17.374Z,82.18
2018-01-11T19:24:45.043Z,81.99
2018-01-11T19:27:12.582Z,81.91
2018-01-11T19:29:40.114Z,81.90
2018-01-11T19:32:07.698Z,81.97
2018-01-11T19:34:35.291Z,82.19
2018-01-11T19:37:02.900Z,82.10
2018-01-11T19:39:30.442Z,81.94
2018-01-11T19:41:57.978Z,81.86
2018-01-11T19:44:25.567Z,81.70
2018-01-11T19:46:53.142Z,81.78
2018-01-11T19:49:20.735Z,81.70
2018-01-11T19:51:48.267Z,82.11
2018-01-11T19:54:15.867Z,82.17
2018-01-11T19:56:43.410Z,82.25
2018-01-11T19:59:10.966Z,82.14
2018-01-11T20:01:38.547Z,82.48
2018-01-11T20:04:06.159Z,82.44
2018-01-11T20:06:33.703Z,82.37
2018-01-11T20:09:01.264Z,82.14
2018-01-11T20:11:28.819Z,82.16
2018-01-11T20:13:56.422Z,82.23
2018-01-11T20:16:23.954Z,82.38
2018-01-11T20:18:51.548Z,82.38
2018-01-11T20:21:19.086Z,82.38
2018-01-11T20:23:46.619Z,82.08
2018-01-11T20:26:14.202Z,82.03
2018-01-11T20:28:41.794Z,82.05
2018-01-11T20:31:09.330Z,82.06
2018-01-11T20:33:36.874Z,82.01
2018-01-11T20:36:04.471Z,81.95
2018-01-11T20:38:32.046Z,82.10
2018-01-11T20:40:59.578Z,82.24
2018-01-11T20:43:27.114Z,82.54
2018-01-11T20:45:54.714Z,82.51
2018-01-11T20:48:22.286Z,82.77
2018-01-11T20:50:49.887Z,83.14
2018-01-11T20:53:17.482Z,83.15
2018-01-11T20:55:45.014Z,83.38
2018-01-11T20:58:12.594Z,83.51
2018-01-11T21:00:40.126Z,83.42
2018-01-11T21:03:07.766Z,83.38
2018-01-11T21:05:35.294Z,83.22
2018-01-11T21:08:02.826Z,83.10
2018-01-11T21:10:30.427Z,83.10
2018-01-11T21:12:57.962Z,83.22
2018-01-11T21:15:25.599Z,83.46
2018-01-11T21:17:53.130Z,83.24
2018-01-11T21:20:20.727Z,83.62
2018-01-11T21:22:48.331Z,83.50
2018-01-11T21:25:15.862Z,83.85
2018-01-11T21:27:43.514Z,83.59
2018-01-11T21:30:11.106Z,83.66
2018-01-11T21:32:38.642Z,83.91
2018-01-11T21:35:06.246Z,84.35
2018-01-11T21:37:33.842Z,84.48
2018-01-11T21:40:01.446Z,84.30
2018-01-11T21:42:28.978Z,84.30
2018-01-11T21:44:56.506Z,84.56
2018-01-11T21:47:24.051Z,84.54
2018-01-11T21:49:51.652Z,84.64
2018-01-11T21:52:19.238Z,84.73
2018-01-11T21:54:46.774Z,84.92
2018-01-11T21:57:14.315Z,84.94
2018-01-11T21:59:41.919Z,84.99
2018-01-11T22:02:09.458Z,85.05
2018-01-11T22:04:37.038Z,84.96
2018-01-11T22:07:04.573Z,85.01
2018-01-11T22:09:32.172Z,85.47
2018-01-11T22:11:59.714Z,85.62
2018-01-11T22:14:27.310Z,85.49
2018-01-11T22:16:54.902Z,85.62
2018-01-11T22:19:22.502Z,85.41
2018-01-11T22:21:50.042Z,85.61
2018-01-11T22:24:17.587Z,85.60
2018-01-11T22:26:45.183Z,85.72
2018-01-11T22:29:12.806Z,85.79
2018-01-11T22:31:40.340Z,85.90
2018-01-11T22:34:07.880Z,86.01
2018-01-11T22:36:35.430Z,86.18
2018-01-11T22:39:02.995Z,86.23
2018-01-11T22:41:30.581Z,86.41
2018-01-11T22:43:58.118Z,86.58
2018-01-11T22:46:25.650Z,86.72
2018-01-11T22:48:53.261Z,86.67
2018-01-11T22:51:20.794Z,86.85
2018-01-11T22:53:48.406Z,87.09
2018-01-11T22:56:15.973Z,87.15
2018-01-11T22:58:43.510Z,87.17
2018-01-11T23:01:11.056Z,87.16
2018-01-11T23:03:38.595Z,87.28
2018-01-11T23:06:06.170Z,87.24
2018-01-11T23:08:33.715Z,87.11
2018-01-11T23:11:01.259Z,87.35
2018-01-11T23:13:28.807Z,87.65
2018-01-11T23:15:56.346Z,87.63
2018-01-11T23:18:23.931Z,87.58
2018-01-11T23:20:51.474Z,87.62
2018-01-11T23:23:19.011Z,87.74
2018-01-11T23:25:46.568Z,87.82
2018-01-11T23:28:14.219Z,87.95
2018-01-11T23:30:41.790Z,87.90
2018-01-11T23:33:09.386Z,87.89
2018-01-11T23:35:36.926Z,87.95
2018-01-11T23:38:04.473Z,88.08
2018-01-11T23:40:32.010Z,87.97
2018-01-11T23:42:59.606Z,87.91
2018-01-11T23:45:27.138Z,87.74
2018-01-11T23:47:54.670Z,87.74
2018-01-11T23:50:22.280Z,87.85
2018-01-11T23:52:49.816Z,88.06
2018-01-11T23:55:17.410Z,88.06
2018-01-11T23:57:45.011Z,88.14
